sensor_id;sensor_type;location;lat;lon;timestamp;P1;durP1;ratioP1;P2;durP2;ratioP2
32808;SDS011;19159;48.178;16.386;2023-07-16T00:00:46;6.43;;;2.72;;
32808;SDS011;19159;48.178;16.386;2023-07-16T00:03:12;5.95;;;2.90;;
32808;SDS011;19159;48.178;16.386;2023-07-16T00:05:39;5.43;;;2.67;;
32808;SDS011;19159;48.178;16.386;2023-07-16T00:08:04;7.50;;;3.58;;
32808;SDS011;19159;48.178;16.386;2023-07-16T00:10:32;6.57;;;3.17;;
32808;SDS011;19159;48.178;16.386;2023-07-16T00:13:02;4.18;;;3.20;;
32808;SDS011;19159;48.178;16.386;2023-07-16T00:15:29;6.43;;;2.90;;
32808;SDS011;19159;48.178;16.386;2023-07-16T00:17:55;5.65;;;3.08;;
32808;SDS011;19159;48.178;16.386;2023-07-16T00:20:20;4.57;;;3.05;;
32808;SDS011;19159;48.178;16.386;2023-07-16T00:22:48;6.20;;;2.83;;
32808;SDS011;19159;48.178;16.386;2023-07-16T00:25:14;4.15;;;2.78;;
32808;SDS011;19159;48.178;16.386;2023-07-16T00:27:39;5.28;;;3.10;;
32808;SDS011;19159;48.178;16.386;2023-07-16T00:30:05;4.72;;;3.08;;
32808;SDS011;19159;48.178;16.386;2023-07-16T00:32:32;6.22;;;3.38;;
32808;SDS011;19159;48.178;16.386;2023-07-16T00:34:57;4.97;;;2.83;;
32808;SDS011;19159;48.178;16.386;2023-07-16T00:37:23;7.65;;;2.88;;
32808;SDS011;19159;48.178;16.386;2023-07-16T00:39:49;6.10;;;3.10;;
32808;SDS011;19159;48.178;16.386;2023-07-16T00:42:15;5.18;;;3.08;;
32808;SDS011;19159;48.178;16.386;2023-07-16T00:44:40;5.25;;;3.00;;
32808;SDS011;19159;48.178;16.386;2023-07-16T00:47:06;4.75;;;3.17;;
32808;SDS011;19159;48.178;16.386;2023-07-16T00:49:32;7.07;;;3.17;;
32808;SDS011;19159;48.178;16.386;2023-07-16T00:51:58;5.75;;;3.30;;
32808;SDS011;19159;48.178;16.386;2023-07-16T00:54:25;7.28;;;3.10;;
32808;SDS011;19159;48.178;16.386;2023-07-16T00:56:51;7.13;;;2.95;;
32808;SDS011;19159;48.178;16.386;2023-07-16T00:59:17;5.00;;;3.10;;
32808;SDS011;19159;48.178;16.386;2023-07-16T01:01:43;7.35;;;3.10;;
32808;SDS011;19159;48.178;16.386;2023-07-16T01:04:08;5.38;;;2.90;;
32808;SDS011;19159;48.178;16.386;2023-07-16T01:06:41;6.60;;;3.17;;
32808;SDS011;19159;48.178;16.386;2023-07-16T01:09:16;4.53;;;2.75;;
32808;SDS011;19159;48.178;16.386;2023-07-16T01:11:43;3.95;;;2.85;;
32808;SDS011;19159;48.178;16.386;2023-07-16T01:14:10;6.95;;;3.10;;
32808;SDS011;19159;48.178;16.386;2023-07-16T01:16:37;8.55;;;3.65;;
32808;SDS011;19159;48.178;16.386;2023-07-16T01:19:03;4.22;;;2.67;;
32808;SDS011;19159;48.178;16.386;2023-07-16T01:21:31;5.00;;;3.17;;
32808;SDS011;19159;48.178;16.386;2023-07-16T01:30:09;11.07;;;3.28;;
32808;SDS011;19159;48.178;16.386;2023-07-16T01:32:40;5.45;;;3.15;;
32808;SDS011;19159;48.178;16.386;2023-07-16T01:35:07;5.20;;;3.28;;
32808;SDS011;19159;48.178;16.386;2023-07-16T01:37:33;7.47;;;3.38;;
32808;SDS011;19159;48.178;16.386;2023-07-16T01:39:59;6.00;;;3.50;;
32808;SDS011;19159;48.178;16.386;2023-07-16T01:42:26;7.53;;;3.30;;
32808;SDS011;19159;48.178;16.386;2023-07-16T01:44:51;5.45;;;2.97;;
32808;SDS011;19159;48.178;16.386;2023-07-16T01:50:05;4.47;;;3.25;;
32808;SDS011;19159;48.178;16.386;2023-07-16T01:52:31;6.63;;;2.80;;
32808;SDS011;19159;48.178;16.386;2023-07-16T01:54:57;4.40;;;3.30;;
32808;SDS011;19159;48.178;16.386;2023-07-16T01:57:23;5.88;;;3.38;;
32808;SDS011;19159;48.178;16.386;2023-07-16T01:59:48;5.82;;;2.92;;
32808;SDS011;19159;48.178;16.386;2023-07-16T02:02:14;5.28;;;2.90;;
32808;SDS011;19159;48.178;16.386;2023-07-16T02:04:39;6.00;;;2.90;;
32808;SDS011;19159;48.178;16.386;2023-07-16T02:07:05;4.28;;;2.92;;
32808;SDS011;19159;48.178;16.386;2023-07-16T02:09:30;5.80;;;3.15;;
32808;SDS011;19159;48.178;16.386;2023-07-16T02:11:56;7.80;;;3.65;;
32808;SDS011;19159;48.178;16.386;2023-07-16T02:14:22;4.57;;;2.65;;
32808;SDS011;19159;48.178;16.386;2023-07-16T02:16:48;5.43;;;3.15;;
32808;SDS011;19159;48.178;16.386;2023-07-16T02:19:14;5.85;;;3.20;;
32808;SDS011;19159;48.178;16.386;2023-07-16T02:21:39;4.57;;;3.25;;
32808;SDS011;19159;48.178;16.386;2023-07-16T02:24:05;4.65;;;3.25;;
32808;SDS011;19159;48.178;16.386;2023-07-16T02:26:30;8.65;;;3.38;;
32808;SDS011;19159;48.178;16.386;2023-07-16T02:28:56;5.72;;;3.40;;
32808;SDS011;19159;48.178;16.386;2023-07-16T02:31:23;10.05;;;3.65;;
32808;SDS011;19159;48.178;16.386;2023-07-16T02:33:49;5.10;;;3.00;;
32808;SDS011;19159;48.178;16.386;2023-07-16T02:36:14;6.25;;;3.50;;
32808;SDS011;19159;48.178;16.386;2023-07-16T02:38:40;4.40;;;3.03;;
32808;SDS011;19159;48.178;16.386;2023-07-16T02:41:06;7.57;;;3.95;;
32808;SDS011;19159;48.178;16.386;2023-07-16T02:43:31;6.13;;;3.50;;
32808;SDS011;19159;48.178;16.386;2023-07-16T02:45:57;5.53;;;3.53;;
32808;SDS011;19159;48.178;16.386;2023-07-16T02:48:22;5.22;;;3.38;;
32808;SDS011;19159;48.178;16.386;2023-07-16T02:50:49;5.65;;;3.22;;
32808;SDS011;19159;48.178;16.386;2023-07-16T02:53:14;5.70;;;3.30;;
32808;SDS011;19159;48.178;16.386;2023-07-16T02:55:40;5.22;;;3.60;;
32808;SDS011;19159;48.178;16.386;2023-07-16T02:58:05;4.40;;;3.40;;
32808;SDS011;19159;48.178;16.386;2023-07-16T03:00:31;8.27;;;3.80;;
32808;SDS011;19159;48.178;16.386;2023-07-16T03:02:57;7.45;;;3.13;;
32808;SDS011;19159;48.178;16.386;2023-07-16T03:05:24;4.03;;;3.17;;
32808;SDS011;19159;48.178;16.386;2023-07-16T03:07:50;4.45;;;3.10;;
32808;SDS011;19159;48.178;16.386;2023-07-16T03:10:15;4.68;;;3.60;;
32808;SDS011;19159;48.178;16.386;2023-07-16T03:12:41;6.05;;;3.65;;
32808;SDS011;19159;48.178;16.386;2023-07-16T03:15:07;6.05;;;3.60;;
32808;SDS011;19159;48.178;16.386;2023-07-16T03:17:33;5.90;;;3.63;;
32808;SDS011;19159;48.178;16.386;2023-07-16T03:19:59;3.90;;;3.50;;
32808;SDS011;19159;48.178;16.386;2023-07-16T03:22:24;4.72;;;4.05;;
32808;SDS011;19159;48.178;16.386;2023-07-16T03:24:50;5.80;;;3.65;;
32808;SDS011;19159;48.178;16.386;2023-07-16T03:27:15;7.13;;;3.90;;
32808;SDS011;19159;48.178;16.386;2023-07-16T03:29:41;5.95;;;4.07;;
32808;SDS011;19159;48.178;16.386;2023-07-16T03:32:07;7.13;;;4.20;;
32808;SDS011;19159;48.178;16.386;2023-07-16T03:34:33;5.95;;;3.80;;
32808;SDS011;19159;48.178;16.386;2023-07-16T03:36:58;4.35;;;3.80;;
32808;SDS011;19159;48.178;16.386;2023-07-16T03:39:24;4.63;;;3.30;;
32808;SDS011;19159;48.178;16.386;2023-07-16T03:41:49;6.70;;;3.83;;
32808;SDS011;19159;48.178;16.386;2023-07-16T03:44:15;6.43;;;3.90;;
32808;SDS011;19159;48.178;16.386;2023-07-16T03:46:40;4.88;;;4.38;;
32808;SDS011;19159;48.178;16.386;2023-07-16T03:49:06;6.03;;;4.63;;
32808;SDS011;19159;48.178;16.386;2023-07-16T03:51:33;5.57;;;4.70;;
32808;SDS011;19159;48.178;16.386;2023-07-16T03:53:58;8.10;;;4.72;;
32808;SDS011;19159;48.178;16.386;2023-07-16T03:56:24;9.20;;;4.70;;
32808;SDS011;19159;48.178;16.386;2023-07-16T03:58:49;6.72;;;5.45;;
32808;SDS011;19159;48.178;16.386;2023-07-16T04:01:15;8.85;;;5.78;;
32808;SDS011;19159;48.178;16.386;2023-07-16T04:03:40;5.05;;;4.55;;
32808;SDS011;19159;48.178;16.386;2023-07-16T04:06:08;8.10;;;5.65;;
32808;SDS011;19159;48.178;16.386;2023-07-16T04:08:34;7.10;;;4.55;;
32808;SDS011;19159;48.178;16.386;2023-07-16T04:11:01;7.60;;;4.60;;
32808;SDS011;19159;48.178;16.386;2023-07-16T04:13:27;6.47;;;5.00;;
32808;SDS011;19159;48.178;16.386;2023-07-16T04:15:52;5.55;;;5.05;;
32808;SDS011;19159;48.178;16.386;2023-07-16T04:18:19;8.10;;;5.22;;
32808;SDS011;19159;48.178;16.386;2023-07-16T04:20:46;6.72;;;4.97;;
32808;SDS011;19159;48.178;16.386;2023-07-16T04:23:12;6.88;;;5.53;;
32808;SDS011;19159;48.178;16.386;2023-07-16T04:25:37;7.72;;;5.10;;
32808;SDS011;19159;48.178;16.386;2023-07-16T04:28:03;6.43;;;4.78;;
32808;SDS011;19159;48.178;16.386;2023-07-16T04:30:29;8.52;;;4.00;;
32808;SDS011;19159;48.178;16.386;2023-07-16T04:32:54;6.75;;;5.15;;
32808;SDS011;19159;48.178;16.386;2023-07-16T04:35:20;5.90;;;4.85;;
32808;SDS011;19159;48.178;16.386;2023-07-16T04:37:46;7.90;;;5.00;;
32808;SDS011;19159;48.178;16.386;2023-07-16T04:40:11;5.75;;;4.68;;
32808;SDS011;19159;48.178;16.386;2023-07-16T04:42:37;5.20;;;4.40;;
32808;SDS011;19159;48.178;16.386;2023-07-16T04:45:03;8.77;;;4.88;;
32808;SDS011;19159;48.178;16.386;2023-07-16T04:47:30;8.23;;;4.60;;
32808;SDS011;19159;48.178;16.386;2023-07-16T04:49:57;5.30;;;4.75;;
32808;SDS011;19159;48.178;16.386;2023-07-16T04:52:26;6.70;;;4.57;;
32808;SDS011;19159;48.178;16.386;2023-07-16T04:54:52;6.40;;;4.60;;
32808;SDS011;19159;48.178;16.386;2023-07-16T04:57:17;5.53;;;3.75;;
32808;SDS011;19159;48.178;16.386;2023-07-16T04:59:43;4.25;;;3.40;;
32808;SDS011;19159;48.178;16.386;2023-07-16T05:02:08;7.75;;;4.07;;
32808;SDS011;19159;48.178;16.386;2023-07-16T05:04:34;10.30;;;4.50;;
32808;SDS011;19159;48.178;16.386;2023-07-16T05:07:03;5.05;;;3.70;;
32808;SDS011;19159;48.178;16.386;2023-07-16T05:09:29;7.65;;;3.95;;
32808;SDS011;19159;48.178;16.386;2023-07-16T05:11:55;7.60;;;3.75;;
32808;SDS011;19159;48.178;16.386;2023-07-16T05:14:21;5.05;;;3.60;;
32808;SDS011;19159;48.178;16.386;2023-07-16T05:16:47;7.15;;;4.13;;
32808;SDS011;19159;48.178;16.386;2023-07-16T05:19:12;5.82;;;3.47;;
32808;SDS011;19159;48.178;16.386;2023-07-16T05:21:38;5.97;;;3.58;;
32808;SDS011;19159;48.178;16.386;2023-07-16T05:24:04;6.80;;;3.25;;
32808;SDS011;19159;48.178;16.386;2023-07-16T05:26:30;7.22;;;3.58;;
32808;SDS011;19159;48.178;16.386;2023-07-16T05:28:55;6.38;;;3.22;;
32808;SDS011;19159;48.178;16.386;2023-07-16T05:31:21;6.72;;;3.55;;
32808;SDS011;19159;48.178;16.386;2023-07-16T05:33:46;5.72;;;3.00;;
32808;SDS011;19159;48.178;16.386;2023-07-16T05:36:12;5.57;;;3.38;;
32808;SDS011;19159;48.178;16.386;2023-07-16T05:38:37;5.45;;;3.50;;
32808;SDS011;19159;48.178;16.386;2023-07-16T05:41:03;5.40;;;3.45;;
32808;SDS011;19159;48.178;16.386;2023-07-16T05:43:30;7.40;;;3.30;;
32808;SDS011;19159;48.178;16.386;2023-07-16T05:45:55;6.88;;;2.90;;
32808;SDS011;19159;48.178;16.386;2023-07-16T05:48:21;4.07;;;3.00;;
32808;SDS011;19159;48.178;16.386;2023-07-16T05:50:47;4.78;;;2.80;;
32808;SDS011;19159;48.178;16.386;2023-07-16T05:53:12;4.57;;;3.35;;
32808;SDS011;19159;48.178;16.386;2023-07-16T05:55:41;3.45;;;2.97;;
32808;SDS011;19159;48.178;16.386;2023-07-16T05:58:06;5.32;;;3.10;;
32808;SDS011;19159;48.178;16.386;2023-07-16T06:00:32;4.93;;;2.70;;
32808;SDS011;19159;48.178;16.386;2023-07-16T06:02:58;8.50;;;3.40;;
32808;SDS011;19159;48.178;16.386;2023-07-16T06:05:23;5.47;;;3.17;;
32808;SDS011;19159;48.178;16.386;2023-07-16T06:07:51;4.20;;;2.80;;
32808;SDS011;19159;48.178;16.386;2023-07-16T06:10:17;5.50;;;2.95;;
32808;SDS011;19159;48.178;16.386;2023-07-16T06:12:43;4.13;;;2.80;;
32808;SDS011;19159;48.178;16.386;2023-07-16T06:15:08;4.07;;;2.70;;
32808;SDS011;19159;48.178;16.386;2023-07-16T06:17:34;3.90;;;2.70;;
32808;SDS011;19159;48.178;16.386;2023-07-16T06:20:00;9.13;;;2.88;;
32808;SDS011;19159;48.178;16.386;2023-07-16T06:22:27;3.85;;;2.28;;
32808;SDS011;19159;48.178;16.386;2023-07-16T06:24:52;3.88;;;2.78;;
32808;SDS011;19159;48.178;16.386;2023-07-16T06:27:18;5.43;;;3.30;;
32808;SDS011;19159;48.178;16.386;2023-07-16T06:29:43;8.77;;;2.90;;
32808;SDS011;19159;48.178;16.386;2023-07-16T06:32:09;5.95;;;3.08;;
32808;SDS011;19159;48.178;16.386;2023-07-16T06:34:34;4.10;;;2.67;;
32808;SDS011;19159;48.178;16.386;2023-07-16T06:37:00;5.57;;;2.90;;
32808;SDS011;19159;48.178;16.386;2023-07-16T06:39:25;5.93;;;2.80;;
32808;SDS011;19159;48.178;16.386;2023-07-16T06:41:51;6.10;;;3.20;;
32808;SDS011;19159;48.178;16.386;2023-07-16T06:44:17;5.20;;;2.65;;
32808;SDS011;19159;48.178;16.386;2023-07-16T06:46:42;5.88;;;2.97;;
32808;SDS011;19159;48.178;16.386;2023-07-16T06:49:08;4.53;;;3.15;;
32808;SDS011;19159;48.178;16.386;2023-07-16T06:51:33;5.53;;;2.92;;
32808;SDS011;19159;48.178;16.386;2023-07-16T06:53:59;3.20;;;2.70;;
32808;SDS011;19159;48.178;16.386;2023-07-16T06:56:25;4.80;;;2.92;;
32808;SDS011;19159;48.178;16.386;2023-07-16T06:58:50;6.22;;;2.83;;
32808;SDS011;19159;48.178;16.386;2023-07-16T07:01:16;6.28;;;3.05;;
32808;SDS011;19159;48.178;16.386;2023-07-16T07:03:41;7.18;;;2.90;;
32808;SDS011;19159;48.178;16.386;2023-07-16T07:06:07;9.68;;;2.92;;
32808;SDS011;19159;48.178;16.386;2023-07-16T07:08:35;4.30;;;2.67;;
32808;SDS011;19159;48.178;16.386;2023-07-16T07:11:01;4.60;;;2.55;;
32808;SDS011;19159;48.178;16.386;2023-07-16T07:13:27;5.32;;;2.78;;
32808;SDS011;19159;48.178;16.386;2023-07-16T07:15:54;3.85;;;2.58;;
32808;SDS011;19159;48.178;16.386;2023-07-16T07:18:20;6.00;;;2.63;;
32808;SDS011;19159;48.178;16.386;2023-07-16T07:20:46;7.20;;;2.38;;
32808;SDS011;19159;48.178;16.386;2023-07-16T07:23:15;5.28;;;2.63;;
32808;SDS011;19159;48.178;16.386;2023-07-16T07:25:41;3.90;;;2.58;;
32808;SDS011;19159;48.178;16.386;2023-07-16T07:28:06;8.20;;;2.67;;
32808;SDS011;19159;48.178;16.386;2023-07-16T07:30:32;6.25;;;3.22;;
32808;SDS011;19159;48.178;16.386;2023-07-16T07:32:58;4.53;;;2.22;;
32808;SDS011;19159;48.178;16.386;2023-07-16T07:35:23;7.75;;;3.08;;
32808;SDS011;19159;48.178;16.386;2023-07-16T07:37:49;5.60;;;2.92;;
32808;SDS011;19159;48.178;16.386;2023-07-16T07:40:15;5.60;;;2.50;;
32808;SDS011;19159;48.178;16.386;2023-07-16T07:42:41;4.53;;;2.33;;
32808;SDS011;19159;48.178;16.386;2023-07-16T07:45:06;7.13;;;1.98;;
32808;SDS011;19159;48.178;16.386;2023-07-16T07:47:32;3.42;;;2.03;;
32808;SDS011;19159;48.178;16.386;2023-07-16T07:49:58;6.63;;;2.17;;
32808;SDS011;19159;48.178;16.386;2023-07-16T07:52:23;6.85;;;2.25;;
32808;SDS011;19159;48.178;16.386;2023-07-16T07:54:49;6.07;;;1.90;;
32808;SDS011;19159;48.178;16.386;2023-07-16T07:57:15;4.07;;;1.40;;
32808;SDS011;19159;48.178;16.386;2023-07-16T07:59:40;5.25;;;1.52;;
32808;SDS011;19159;48.178;16.386;2023-07-16T08:02:06;5.80;;;1.80;;
32808;SDS011;19159;48.178;16.386;2023-07-16T08:04:31;4.40;;;1.50;;
32808;SDS011;19159;48.178;16.386;2023-07-16T08:06:57;5.10;;;1.60;;
32808;SDS011;19159;48.178;16.386;2023-07-16T08:09:23;5.85;;;1.50;;
32808;SDS011;19159;48.178;16.386;2023-07-16T08:11:48;6.47;;;1.42;;
32808;SDS011;19159;48.178;16.386;2023-07-16T08:14:14;2.83;;;1.30;;
32808;SDS011;19159;48.178;16.386;2023-07-16T08:16:40;2.05;;;1.33;;
32808;SDS011;19159;48.178;16.386;2023-07-16T08:19:05;4.47;;;1.50;;
32808;SDS011;19159;48.178;16.386;2023-07-16T08:21:32;3.15;;;1.38;;
32808;SDS011;19159;48.178;16.386;2023-07-16T08:23:57;2.90;;;1.90;;
32808;SDS011;19159;48.178;16.386;2023-07-16T08:26:23;4.32;;;1.48;;
32808;SDS011;19159;48.178;16.386;2023-07-16T08:28:49;1.92;;;1.38;;
32808;SDS011;19159;48.178;16.386;2023-07-16T08:31:14;4.68;;;1.27;;
32808;SDS011;19159;48.178;16.386;2023-07-16T08:33:40;3.50;;;1.70;;
32808;SDS011;19159;48.178;16.386;2023-07-16T08:36:06;4.25;;;1.50;;
32808;SDS011;19159;48.178;16.386;2023-07-16T08:38:32;2.42;;;1.65;;
32808;SDS011;19159;48.178;16.386;2023-07-16T08:40:59;4.75;;;1.52;;
32808;SDS011;19159;48.178;16.386;2023-07-16T08:43:25;4.25;;;1.60;;
32808;SDS011;19159;48.178;16.386;2023-07-16T08:45:51;1.85;;;1.30;;
32808;SDS011;19159;48.178;16.386;2023-07-16T08:48:17;4.53;;;1.90;;
32808;SDS011;19159;48.178;16.386;2023-07-16T08:50:45;3.58;;;1.45;;
32808;SDS011;19159;48.178;16.386;2023-07-16T08:53:12;14.60;;;1.70;;
32808;SDS011;19159;48.178;16.386;2023-07-16T08:55:40;1.88;;;1.40;;
32808;SDS011;19159;48.178;16.386;2023-07-16T08:58:08;4.45;;;1.58;;
32808;SDS011;19159;48.178;16.386;2023-07-16T09:00:34;3.78;;;1.40;;
32808;SDS011;19159;48.178;16.386;2023-07-16T09:03:00;2.20;;;1.33;;
32808;SDS011;19159;48.178;16.386;2023-07-16T09:05:26;1.90;;;1.30;;
32808;SDS011;19159;48.178;16.386;2023-07-16T09:07:54;2.05;;;1.60;;
32808;SDS011;19159;48.178;16.386;2023-07-16T09:10:20;3.78;;;1.45;;
32808;SDS011;19159;48.178;16.386;2023-07-16T09:12:45;3.75;;;1.60;;
32808;SDS011;19159;48.178;16.386;2023-07-16T09:15:13;2.35;;;1.30;;
32808;SDS011;19159;48.178;16.386;2023-07-16T09:17:42;4.57;;;1.73;;
32808;SDS011;19159;48.178;16.386;2023-07-16T09:20:11;2.85;;;1.50;;
32808;SDS011;19159;48.178;16.386;2023-07-16T09:22:39;1.83;;;1.20;;
32808;SDS011;19159;48.178;16.386;2023-07-16T09:25:05;3.05;;;1.30;;
32808;SDS011;19159;48.178;16.386;2023-07-16T09:27:30;2.17;;;1.80;;
32808;SDS011;19159;48.178;16.386;2023-07-16T09:29:56;3.30;;;1.23;;
32808;SDS011;19159;48.178;16.386;2023-07-16T09:32:32;6.28;;;1.90;;
32808;SDS011;19159;48.178;16.386;2023-07-16T09:34:58;2.83;;;1.50;;
32808;SDS011;19159;48.178;16.386;2023-07-16T09:37:24;2.35;;;1.30;;
32808;SDS011;19159;48.178;16.386;2023-07-16T09:39:51;1.77;;;1.40;;
32808;SDS011;19159;48.178;16.386;2023-07-16T09:42:16;3.45;;;1.77;;
32808;SDS011;19159;48.178;16.386;2023-07-16T09:44:44;3.38;;;1.90;;
32808;SDS011;19159;48.178;16.386;2023-07-16T09:47:10;4.95;;;1.55;;
32808;SDS011;19159;48.178;16.386;2023-07-16T09:49:35;2.92;;;1.52;;
32808;SDS011;19159;48.178;16.386;2023-07-16T09:52:01;2.80;;;1.60;;
32808;SDS011;19159;48.178;16.386;2023-07-16T09:54:27;1.90;;;1.40;;
32808;SDS011;19159;48.178;16.386;2023-07-16T09:56:57;5.53;;;1.30;;
32808;SDS011;19159;48.178;16.386;2023-07-16T09:59:24;2.42;;;1.50;;
32808;SDS011;19159;48.178;16.386;2023-07-16T10:01:54;2.83;;;1.50;;
32808;SDS011;19159;48.178;16.386;2023-07-16T10:04:21;3.08;;;1.60;;
32808;SDS011;19159;48.178;16.386;2023-07-16T10:09:30;2.50;;;1.63;;
32808;SDS011;19159;48.178;16.386;2023-07-16T10:12:34;2.30;;;1.70;;
32808;SDS011;19159;48.178;16.386;2023-07-16T10:14:54;1.83;;;1.30;;
32808;SDS011;19159;48.178;16.386;2023-07-16T10:17:24;3.97;;;1.38;;
32808;SDS011;19159;48.178;16.386;2023-07-16T10:19:55;3.72;;;1.40;;
32808;SDS011;19159;48.178;16.386;2023-07-16T10:24:58;3.67;;;1.90;;
32808;SDS011;19159;48.178;16.386;2023-07-16T10:27:27;2.15;;;1.13;;
32808;SDS011;19159;48.178;16.386;2023-07-16T10:29:58;4.40;;;2.00;;
32808;SDS011;19159;48.178;16.386;2023-07-16T10:32:26;2.83;;;1.40;;
32808;SDS011;19159;48.178;16.386;2023-07-16T10:34:53;2.50;;;1.50;;
32808;SDS011;19159;48.178;16.386;2023-07-16T10:37:19;2.20;;;1.40;;
32808;SDS011;19159;48.178;16.386;2023-07-16T10:39:48;1.50;;;1.40;;
32808;SDS011;19159;48.178;16.386;2023-07-16T10:42:16;5.13;;;1.60;;
32808;SDS011;19159;48.178;16.386;2023-07-16T10:44:42;1.30;;;1.20;;
32808;SDS011;19159;48.178;16.386;2023-07-16T10:47:08;5.70;;;1.30;;
32808;SDS011;19159;48.178;16.386;2023-07-16T10:49:43;2.85;;;1.40;;
32808;SDS011;19159;48.178;16.386;2023-07-16T10:52:09;1.90;;;1.55;;
32808;SDS011;19159;48.178;16.386;2023-07-16T10:54:35;2.20;;;1.50;;
32808;SDS011;19159;48.178;16.386;2023-07-16T10:57:00;3.47;;;1.50;;
32808;SDS011;19159;48.178;16.386;2023-07-16T10:59:28;3.20;;;1.55;;
32808;SDS011;19159;48.178;16.386;2023-07-16T11:01:54;3.10;;;1.42;;
32808;SDS011;19159;48.178;16.386;2023-07-16T11:04:20;2.25;;;1.45;;
32808;SDS011;19159;48.178;16.386;2023-07-16T11:06:45;2.63;;;1.30;;
32808;SDS011;19159;48.178;16.386;2023-07-16T11:09:11;1.77;;;1.45;;
32808;SDS011;19159;48.178;16.386;2023-07-16T11:11:37;3.47;;;1.50;;
32808;SDS011;19159;48.178;16.386;2023-07-16T11:14:04;3.60;;;1.42;;
32808;SDS011;19159;48.178;16.386;2023-07-16T11:16:36;2.63;;;1.60;;
32808;SDS011;19159;48.178;16.386;2023-07-16T11:19:06;2.65;;;1.42;;
32808;SDS011;19159;48.178;16.386;2023-07-16T11:21:36;3.72;;;1.65;;
32808;SDS011;19159;48.178;16.386;2023-07-16T11:24:12;2.70;;;1.35;;
32808;SDS011;19159;48.178;16.386;2023-07-16T11:26:40;3.95;;;1.60;;
32808;SDS011;19159;48.178;16.386;2023-07-16T11:29:17;2.10;;;1.40;;
32808;SDS011;19159;48.178;16.386;2023-07-16T11:31:43;3.13;;;1.48;;
32808;SDS011;19159;48.178;16.386;2023-07-16T11:34:19;2.50;;;1.30;;
32808;SDS011;19159;48.178;16.386;2023-07-16T11:36:46;1.42;;;1.27;;
32808;SDS011;19159;48.178;16.386;2023-07-16T11:39:11;2.97;;;1.40;;
32808;SDS011;19159;48.178;16.386;2023-07-16T11:41:37;2.00;;;1.20;;
32808;SDS011;19159;48.178;16.386;2023-07-16T11:44:03;6.45;;;1.70;;
32808;SDS011;19159;48.178;16.386;2023-07-16T11:46:32;2.75;;;1.38;;
32808;SDS011;19159;48.178;16.386;2023-07-16T11:48:59;1.70;;;1.38;;
32808;SDS011;19159;48.178;16.386;2023-07-16T11:51:25;1.60;;;1.40;;
32808;SDS011;19159;48.178;16.386;2023-07-16T11:53:50;2.00;;;1.50;;
32808;SDS011;19159;48.178;16.386;2023-07-16T11:56:16;6.38;;;1.55;;
32808;SDS011;19159;48.178;16.386;2023-07-16T11:58:41;3.38;;;1.52;;
32808;SDS011;19159;48.178;16.386;2023-07-16T12:01:07;3.67;;;1.60;;
32808;SDS011;19159;48.178;16.386;2023-07-16T12:03:33;1.38;;;1.20;;
32808;SDS011;19159;48.178;16.386;2023-07-16T12:05:59;1.80;;;1.30;;
32808;SDS011;19159;48.178;16.386;2023-07-16T12:08:24;2.53;;;1.23;;
32808;SDS011;19159;48.178;16.386;2023-07-16T12:10:50;4.43;;;1.60;;
32808;SDS011;19159;48.178;16.386;2023-07-16T12:13:15;3.15;;;1.27;;
32808;SDS011;19159;48.178;16.386;2023-07-16T12:15:41;1.90;;;1.38;;
32808;SDS011;19159;48.178;16.386;2023-07-16T12:18:07;5.13;;;1.85;;
32808;SDS011;19159;48.178;16.386;2023-07-16T12:20:33;2.40;;;1.30;;
32808;SDS011;19159;48.178;16.386;2023-07-16T12:22:59;2.05;;;1.50;;
32808;SDS011;19159;48.178;16.386;2023-07-16T12:25:25;3.35;;;1.20;;
32808;SDS011;19159;48.178;16.386;2023-07-16T12:27:50;3.58;;;1.33;;
32808;SDS011;19159;48.178;16.386;2023-07-16T12:30:16;1.85;;;1.38;;
32808;SDS011;19159;48.178;16.386;2023-07-16T12:32:41;2.10;;;1.35;;
32808;SDS011;19159;48.178;16.386;2023-07-16T12:35:07;1.30;;;1.20;;
32808;SDS011;19159;48.178;16.386;2023-07-16T12:37:33;1.60;;;1.20;;
32808;SDS011;19159;48.178;16.386;2023-07-16T12:39:58;2.85;;;1.20;;
32808;SDS011;19159;48.178;16.386;2023-07-16T12:42:24;2.65;;;1.58;;
32808;SDS011;19159;48.178;16.386;2023-07-16T12:44:49;2.22;;;1.67;;
32808;SDS011;19159;48.178;16.386;2023-07-16T12:47:15;2.45;;;1.50;;
32808;SDS011;19159;48.178;16.386;2023-07-16T12:49:41;1.85;;;1.50;;
32808;SDS011;19159;48.178;16.386;2023-07-16T12:52:06;1.98;;;1.42;;
32808;SDS011;19159;48.178;16.386;2023-07-16T12:54:32;1.55;;;1.27;;
32808;SDS011;19159;48.178;16.386;2023-07-16T12:56:58;1.35;;;1.20;;
32808;SDS011;19159;48.178;16.386;2023-07-16T12:59:23;1.80;;;1.23;;
32808;SDS011;19159;48.178;16.386;2023-07-16T13:01:52;1.70;;;1.27;;
32808;SDS011;19159;48.178;16.386;2023-07-16T13:04:17;4.05;;;3.15;;
32808;SDS011;19159;48.178;16.386;2023-07-16T13:06:43;2.38;;;1.67;;
32808;SDS011;19159;48.178;16.386;2023-07-16T13:09:12;2.15;;;1.55;;
32808;SDS011;19159;48.178;16.386;2023-07-16T13:11:38;4.95;;;1.42;;
32808;SDS011;19159;48.178;16.386;2023-07-16T13:14:04;4.70;;;1.17;;
32808;SDS011;19159;48.178;16.386;2023-07-16T13:16:30;2.78;;;1.40;;
32808;SDS011;19159;48.178;16.386;2023-07-16T13:18:55;3.25;;;1.70;;
32808;SDS011;19159;48.178;16.386;2023-07-16T13:21:21;2.88;;;1.20;;
32808;SDS011;19159;48.178;16.386;2023-07-16T13:23:47;4.80;;;1.30;;
32808;SDS011;19159;48.178;16.386;2023-07-16T13:26:12;4.53;;;1.65;;
32808;SDS011;19159;48.178;16.386;2023-07-16T13:28:38;4.20;;;1.55;;
32808;SDS011;19159;48.178;16.386;2023-07-16T13:31:03;2.15;;;1.50;;
32808;SDS011;19159;48.178;16.386;2023-07-16T13:33:29;2.35;;;1.50;;
32808;SDS011;19159;48.178;16.386;2023-07-16T13:35:55;1.73;;;1.33;;
32808;SDS011;19159;48.178;16.386;2023-07-16T13:38:22;3.45;;;1.35;;
32808;SDS011;19159;48.178;16.386;2023-07-16T13:40:47;1.98;;;1.23;;
32808;SDS011;19159;48.178;16.386;2023-07-16T13:43:13;2.50;;;1.30;;
32808;SDS011;19159;48.178;16.386;2023-07-16T13:45:38;1.42;;;1.30;;
32808;SDS011;19159;48.178;16.386;2023-07-16T13:48:04;1.52;;;1.05;;
32808;SDS011;19159;48.178;16.386;2023-07-16T13:50:30;5.72;;;1.20;;
32808;SDS011;19159;48.178;16.386;2023-07-16T13:52:55;3.08;;;1.05;;
32808;SDS011;19159;48.178;16.386;2023-07-16T13:55:21;4.32;;;1.10;;
32808;SDS011;19159;48.178;16.386;2023-07-16T13:57:47;2.03;;;1.20;;
32808;SDS011;19159;48.178;16.386;2023-07-16T14:00:12;1.70;;;1.10;;
32808;SDS011;19159;48.178;16.386;2023-07-16T14:02:40;2.90;;;1.10;;
32808;SDS011;19159;48.178;16.386;2023-07-16T14:05:07;1.33;;;1.20;;
32808;SDS011;19159;48.178;16.386;2023-07-16T14:07:33;2.33;;;1.20;;
32808;SDS011;19159;48.178;16.386;2023-07-16T14:09:58;1.05;;;0.90;;
32808;SDS011;19159;48.178;16.386;2023-07-16T14:12:24;4.93;;;1.33;;
32808;SDS011;19159;48.178;16.386;2023-07-16T14:14:49;4.63;;;1.30;;
32808;SDS011;19159;48.178;16.386;2023-07-16T14:17:15;2.83;;;1.05;;
32808;SDS011;19159;48.178;16.386;2023-07-16T14:19:41;2.05;;;1.25;;
32808;SDS011;19159;48.178;16.386;2023-07-16T14:22:06;1.85;;;1.30;;
32808;SDS011;19159;48.178;16.386;2023-07-16T14:24:36;2.65;;;1.20;;
32808;SDS011;19159;48.178;16.386;2023-07-16T14:27:02;2.10;;;1.20;;
32808;SDS011;19159;48.178;16.386;2023-07-16T14:29:28;1.92;;;1.20;;
32808;SDS011;19159;48.178;16.386;2023-07-16T14:31:54;3.72;;;1.10;;
32808;SDS011;19159;48.178;16.386;2023-07-16T14:34:20;4.90;;;1.45;;
32808;SDS011;19159;48.178;16.386;2023-07-16T14:36:46;1.27;;;1.08;;
32808;SDS011;19159;48.178;16.386;2023-07-16T14:39:12;1.52;;;1.08;;
32808;SDS011;19159;48.178;16.386;2023-07-16T14:41:37;2.40;;;1.20;;